Time;durP1;ratioP1;P1;durP2;ratioP2;P2;SDS_P1;SDS_P2;PMS_P1;PMS_P2;Temp;Humidity;BMP_temperature;BMP_pressure;BME280_temperature;BME280_humidity;BME280_pressure;Samples;Min_cycle;Max_cycle;Signal;HPM_P1;HPM_P2
2022/01/12 00:00:22;;;;;;;12.00;10.70;;;1.60;48.50;;;;;;20636;6864;120789;-88
2022/01/12 00:02:47;;;;;;;11.73;9.87;;;1.50;48.40;;;;;;20659;6862;117659;-87
2022/01/12 00:05:17;;;;;;;14.03;12.70;;;1.60;48.80;;;;;;20429;6864;308816;-88
2022/01/12 00:07:46;;;;;;;12.30;10.97;;;1.50;48.70;;;;;;20634;6865;117718;-86
2022/01/12 00:10:09;;;;;;;13.17;10.57;;;1.60;48.40;;;;;;20586;6872;118214;-86
2022/01/12 00:12:35;;;;;;;12.70;11.60;;;1.40;48.50;;;;;;20396;6872;285074;-86
2022/01/12 00:15:04;;;;;;;11.57;10.48;;;1.50;48.80;;;;;;20606;6880;124325;-85
2022/01/12 00:17:31;;;;;;;11.23;10.13;;;1.40;48.90;;;;;;20611;6880;118019;-92
2022/01/12 00:19:57;;;;;;;11.33;10.13;;;1.40;48.90;;;;;;20550;6880;124888;-86
2022/01/12 00:22:22;;;;;;;13.97;12.67;;;1.30;49.10;;;;;;20403;6882;313630;-88
2022/01/12 00:35:36;;;;;;;11.53;10.47;;;1.70;48.40;;;;;;20707;6872;116992;-86
2022/01/12 00:38:02;;;;;;;10.10;9.07;;;1.70;48.30;;;;;;20684;6872;118722;-86
2022/01/12 00:40:27;;;;;;;11.68;10.77;;;1.50;48.70;;;;;;20463;6887;333836;-85
2022/01/12 00:42:53;;;;;;;10.60;9.43;;;1.60;48.80;;;;;;20695;6872;116729;-85
2022/01/12 00:45:19;;;;;;;11.63;10.63;;;1.60;48.60;;;;;;20454;6883;309033;-85
2022/01/12 00:47:45;;;;;;;10.57;9.57;;;1.70;48.70;;;;;;20704;6872;117967;-85
2022/01/12 00:50:11;;;;;;;10.07;9.17;;;1.70;48.60;;;;;;20617;6872;124340;-85
2022/01/12 00:52:36;;;;;;;11.90;10.90;;;1.50;48.80;;;;;;20501;6872;282086;-85
2022/01/12 00:55:03;;;;;;;10.83;9.83;;;1.60;49.20;;;;;;20709;6872;116546;-86
2022/01/12 00:57:29;;;;;;;10.37;9.47;;;1.60;49.00;;;;;;20662;6872;118907;-86
2022/01/12 00:59:54;;;;;;;9.83;8.93;;;1.50;49.20;;;;;;20659;6872;117276;-85
2022/01/12 01:02:20;;;;;;;9.60;8.77;;;1.30;49.40;;;;;;20689;6872;117302;-85
2022/01/12 01:04:47;;;;;;;10.07;9.18;;;1.10;49.70;;;;;;20693;6872;119210;-85
2022/01/12 01:07:12;;;;;;;9.43;8.63;;;1.00;49.90;;;;;;20637;6872;117867;-85
2022/01/12 01:09:43;;;;;;;9.07;8.27;;;0.90;50.10;;;;;;20645;6872;118000;-85
2022/01/12 01:12:05;;;;;;;10.60;9.80;;;0.80;50.20;;;;;;20396;6872;281517;-85
2022/01/12 01:15:01;;;;;;;9.13;8.43;;;1.10;50.40;;;;;;20688;6870;119722;-85
2022/01/12 01:25:32;;;;;;;16.83;15.13;;;1.20;50.40;;;;;;20447;6861;308335;-87
2022/01/12 01:27:58;;;;;;;12.80;11.57;;;1.70;49.90;;;;;;20622;6861;123694;-85
2022/01/12 01:30:26;;;;;;;15.00;13.60;;;1.60;49.30;;;;;;20399;6865;308797;-85
2022/01/12 01:32:52;;;;;;;11.30;10.23;;;1.70;49.10;;;;;;20603;6880;118327;-85
2022/01/12 01:35:18;;;;;;;11.70;10.50;;;1.60;48.80;;;;;;20588;6887;117892;-87
2022/01/12 01:37:43;;;;;;;10.35;9.23;;;1.30;49.20;;;;;;20602;6880;117629;-85
2022/01/12 01:40:08;;;;;;;10.30;9.13;;;1.20;49.80;;;;;;20573;6880;120301;-86
2022/01/12 01:43:10;;;;;;;10.63;9.53;;;0.80;50.30;;;;;;20620;6876;117701;-85
2022/01/12 01:53:40;;;;;;;11.00;10.10;;;1.70;48.40;;;;;;20613;6876;118911;-86
2022/01/12 01:56:06;;;;;;;12.70;11.70;;;1.60;48.40;;;;;;20400;6862;280213;-86
2022/01/12 01:58:31;;;;;;;13.40;12.30;;;1.60;48.80;;;;;;20429;6862;280107;-86
2022/01/12 02:00:57;;;;;;;10.80;9.82;;;1.90;48.50;;;;;;20635;6866;117844;-86
2022/01/12 02:03:26;;;;;;;10.80;9.90;;;1.80;48.50;;;;;;20648;6866;116750;-86
2022/01/12 02:05:48;;;;;;;10.25;9.45;;;1.60;49.00;;;;;;20623;6866;118191;-85
2022/01/12 02:08:13;;;;;;;10.37;9.27;;;1.30;49.30;;;;;;20651;6866;118619;-86
2022/01/12 02:10:39;;;;;;;12.07;11.12;;;1.20;49.70;;;;;;20430;6867;287665;-87
2022/01/12 02:13:06;;;;;;;10.38;9.48;;;1.30;49.70;;;;;;20696;6867;123476;-86
2022/01/12 02:15:32;;;;;;;11.23;10.13;;;1.30;49.90;;;;;;20642;6872;118131;-85
2022/01/12 02:37:00;;;;;;;11.97;10.77;;;2.10;47.20;;;;;;20639;6872;118064;-86
2022/01/12 02:42:07;;;;;;;14.00;12.90;;;1.70;47.70;;;;;;20401;6872;309835;-86
2022/01/12 02:55:34;;;;;;;11.77;10.63;;;1.90;46.70;;;;;;20641;6872;117582;-88
2022/01/12 02:58:01;;;;;;;12.53;11.23;;;1.40;47.40;;;;;;20618;6872;118931;-88
2022/01/12 03:00:39;;;;;;;13.40;12.20;;;1.00;48.00;;;;;;20416;6872;340237;-89
2022/01/12 03:02:53;;;;;;;13.90;12.77;;;1.10;48.50;;;;;;20389;6872;279852;-88
2022/01/12 03:06:07;;;;;;;10.93;9.93;;;1.40;48.30;;;;;;20623;6872;120164;-88
2022/01/12 03:07:47;;;;;;;11.97;10.90;;;1.30;48.10;;;;;;20297;6872;121199;-88
2022/01/12 03:10:13;;;;;;;21.65;19.42;;;1.00;48.50;;;;;;20422;6862;283687;-88
2022/01/12 03:12:38;;;;;;;12.15;10.95;;;1.10;49.00;;;;;;20668;6862;117773;-87
2022/01/12 03:15:04;;;;;;;14.60;13.30;;;1.00;48.70;;;;;;20450;6862;284992;-86
2022/01/12 03:17:31;;;;;;;14.37;13.20;;;1.10;48.60;;;;;;20451;6862;306839;-87
2022/01/12 03:19:58;;;;;;;14.27;13.07;;;1.40;47.90;;;;;;20411;6862;279937;-87
2022/01/12 03:22:24;;;;;;;13.77;12.68;;;1.60;47.30;;;;;;20445;6862;308784;-87
2022/01/12 03:24:49;;;;;;;11.80;10.80;;;1.70;46.80;;;;;;20659;6862;117531;-87
2022/01/12 03:27:16;;;;;;;11.25;10.20;;;1.50;46.80;;;;;;20650;6862;118051;-86
2022/01/12 03:29:42;;;;;;;10.87;9.90;;;1.10;47.40;;;;;;20651;6862;118279;-87
2022/01/12 03:32:06;;;;;;;14.30;13.07;;;0.90;48.10;;;;;;20432;6862;314021;-89
2022/01/12 03:34:34;;;;;;;14.00;12.90;;;0.80;48.10;;;;;;20454;6862;317018;-87
2022/01/12 03:39:44;;;;;;;11.70;10.60;;;0.70;48.10;;;;;;20665;6861;116880;-86
2022/01/12 03:42:09;;;;;;;12.17;11.03;;;0.70;48.10;;;;;;20648;6861;123446;-86
2022/01/12 03:44:35;;;;;;;14.60;13.40;;;0.40;48.50;;;;;;20451;6861;279603;-86
2022/01/12 03:47:00;;;;;;;12.30;11.15;;;0.50;48.90;;;;;;20677;6861;125015;-86
2022/01/12 03:49:27;;;;;;;11.75;10.68;;;0.50;49.10;;;;;;20688;6861;117783;-86
2022/01/12 03:51:53;;;;;;;15.43;14.13;;;0.30;48.90;;;;;;20467;6861;295402;-87
2022/01/12 03:54:18;;;;;;;15.30;14.00;;;0.40;49.10;;;;;;20452;6861;342840;-86
2022/01/12 03:56:44;;;;;;;12.97;11.77;;;0.70;48.80;;;;;;20670;6861;117733;-87
2022/01/12 03:59:09;;;;;;;15.68;14.27;;;0.70;48.50;;;;;;20448;6861;282872;-88
2022/01/12 04:01:35;;;;;;;12.25;11.10;;;0.70;48.80;;;;;;20668;6861;117606;-87
2022/01/12 04:04:05;;;;;;;15.20;13.90;;;0.70;48.80;;;;;;20439;6861;279598;-87
2022/01/12 04:09:16;;;;;;;12.03;10.93;;;0.60;48.70;;;;;;20663;6861;120711;-87
2022/01/12 04:11:42;;;;;;;14.47;13.27;;;0.40;49.10;;;;;;20451;6861;309208;-87
2022/01/12 04:14:07;;;;;;;15.20;14.00;;;0.50;49.40;;;;;;20409;6862;338183;-88
2022/01/12 04:16:33;;;;;;;14.45;13.32;;;0.80;49.10;;;;;;20445;6862;310631;-88
2022/01/12 04:18:59;;;;;;;12.48;11.38;;;1.00;48.50;;;;;;20669;6862;120153;-87
2022/01/12 04:21:28;;;;;;;14.13;13.02;;;1.00;48.40;;;;;;20450;6862;312741;-88
2022/01/12 04:23:50;;;;;;;12.18;11.12;;;1.00;48.80;;;;;;20651;6862;118288;-88
2022/01/12 04:26:15;;;;;;;14.53;13.33;;;0.90;48.80;;;;;;20537;6862;287921;-88
2022/01/12 04:28:42;;;;;;;14.35;13.23;;;1.00;49.20;;;;;;20476;6862;284688;-87
2022/01/12 04:31:08;;;;;;;12.57;11.43;;;1.10;48.40;;;;;;20664;6862;118049;-87
2022/01/12 04:33:36;;;;;;;11.20;10.20;;;1.10;48.40;;;;;;20654;6862;120122;-87
2022/01/12 04:36:03;;;;;;;10.97;10.07;;;0.60;49.60;;;;;;20638;6862;126539;-87
2022/01/12 04:38:30;;;;;;;10.83;9.83;;;0.60;49.60;;;;;;20654;6862;118837;-87
2022/01/12 04:40:55;;;;;;;10.45;9.30;;;0.30;50.50;;;;;;20657;6862;118320;-87
2022/01/12 04:43:21;;;;;;;10.10;9.20;;;0.30;50.50;;;;;;20659;6862;118276;-87
2022/01/12 04:50:41;;;;;;;15.20;13.90;;;1.00;49.10;;;;;;20460;6861;283944;-87
2022/01/12 04:53:08;;;;;;;13.87;12.87;;;1.00;49.10;;;;;;20451;6861;309257;-89
2022/01/12 04:55:35;;;;;;;12.07;11.07;;;1.00;47.70;;;;;;20668;6861;120404;-87
2022/01/12 04:58:00;;;;;;;11.87;10.80;;;1.00;47.70;;;;;;20655;6861;120770;-88
2022/01/12 05:00:26;;;;;;;14.60;13.50;;;0.70;48.10;;;;;;20469;6861;281750;-90
2022/01/12 05:13:40;;;;;;;15.13;13.73;;;1.50;47.30;;;;;;20457;6861;304109;-92
2022/01/12 05:16:06;;;;;;;15.73;14.52;;;1.60;46.90;;;;;;20434;6861;338841;-90
2022/01/12 05:18:32;;;;;;;13.40;12.27;;;1.30;46.60;;;;;;20671;6861;118541;-90
2022/01/12 05:20:58;;;;;;;12.27;11.13;;;1.30;46.60;;;;;;20635;6861;124599;-90
2022/01/12 05:23:25;;;;;;;15.67;14.20;;;0.90;47.30;;;;;;20419;6861;278807;-92
2022/01/12 05:25:52;;;;;;;12.90;11.63;;;0.80;48.00;;;;;;20650;6862;117985;-91
2022/01/12 05:28:17;;;;;;;11.77;10.67;;;0.70;48.10;;;;;;20708;6862;117762;-92
2022/01/12 05:30:44;;;;;;;11.93;10.93;;;0.50;48.70;;;;;;20666;6862;118248;-91
2022/01/12 05:33:12;;;;;;;12.97;11.77;;;0.30;49.20;;;;;;20672;6862;119659;-91
2022/01/12 05:35:41;;;;;;;11.90;10.70;;;0.10;49.60;;;;;;20664;6862;117729;-89
2022/01/12 05:38:13;;;;;;;15.97;14.57;;;0.00;49.80;;;;;;20477;6862;308438;-94
2022/01/12 05:40:40;;;;;;;17.37;15.88;;;0.10;49.60;;;;;;20464;6862;278582;-92
2022/01/12 05:43:06;;;;;;;16.00;14.68;;;0.50;49.20;;;;;;20529;6862;324689;-92
2022/01/12 05:45:37;;;;;;;14.60;13.20;;;0.70;48.80;;;;;;20787;6862;69549;-92
2022/01/12 05:50:27;;;;;;;12.77;11.52;;;0.40;49.00;;;;;;20735;6862;117902;-91
2022/01/12 05:52:52;;;;;;;17.17;15.67;;;0.20;49.40;;;;;;20463;6862;278878;-91
2022/01/12 05:55:18;;;;;;;18.10;16.50;;;0.20;49.20;;;;;;20470;6862;308820;-90
2022/01/12 05:57:44;;;;;;;18.05;16.55;;;0.50;48.70;;;;;;20480;6862;343349;-91
2022/01/12 06:00:10;;;;;;;14.82;13.43;;;0.70;48.30;;;;;;20693;6860;118979;-91
2022/01/12 06:02:37;;;;;;;17.25;15.75;;;0.60;48.90;;;;;;20456;6861;342021;-90
2022/01/12 06:05:03;;;;;;;14.33;13.03;;;0.60;48.80;;;;;;20682;6861;117504;-92
2022/01/12 06:07:28;;;;;;;16.07;14.67;;;0.50;48.80;;;;;;20470;6861;279151;-90
2022/01/12 06:09:54;;;;;;;14.45;13.15;;;0.60;49.20;;;;;;20641;6861;122340;-89
2022/01/12 06:12:20;;;;;;;16.07;14.67;;;0.60;48.90;;;;;;20459;6861;290738;-84
2022/01/12 06:14:46;;;;;;;17.60;16.10;;;0.60;48.80;;;;;;20461;6861;308441;-88
2022/01/12 06:17:11;;;;;;;14.40;12.95;;;0.80;47.90;;;;;;20679;6861;117588;-92
2022/01/12 06:19:37;;;;;;;13.13;11.90;;;0.70;47.70;;;;;;20663;6861;117762;-84
2022/01/12 06:22:03;;;;;;;16.33;14.82;;;0.40;48.30;;;;;;20443;6861;279339;-86
2022/01/12 06:24:29;;;;;;;16.90;15.40;;;0.60;48.40;;;;;;20451;6861;309297;-88
2022/01/12 06:26:56;;;;;;;14.27;12.97;;;0.60;48.40;;;;;;20666;6861;117163;-89
2022/01/12 06:31:47;;;;;;;18.25;16.65;;;0.30;48.70;;;;;;20442;6861;283813;-90
2022/01/12 06:34:12;;;;;;;18.77;16.98;;;0.30;48.60;;;;;;20671;6861;121211;-88
2022/01/12 06:36:38;;;;;;;23.30;21.15;;;0.30;48.60;;;;;;20460;6861;313788;-90
2022/01/12 06:39:07;;;;;;;26.30;23.90;;;0.30;48.40;;;;;;20456;6862;279594;-91
2022/01/12 06:41:32;;;;;;;20.70;18.53;;;0.50;47.70;;;;;;20664;6862;119745;-92
2022/01/12 06:43:59;;;;;;;21.87;19.87;;;0.40;47.50;;;;;;20421;6862;311647;-89
2022/01/12 06:46:29;;;;;;;22.30;17.20;;;0.30;47.90;;;;;;20663;6862;120322;-89
2022/01/12 06:48:51;;;;;;;21.87;19.87;;;0.30;47.90;;;;;;20437;6862;334611;-89
2022/01/12 06:51:17;;;;;;;21.58;19.58;;;0.30;48.50;;;;;;20453;6862;308330;-91
2022/01/12 06:53:44;;;;;;;25.23;22.83;;;0.60;48.30;;;;;;20462;6862;278867;-88
2022/01/12 06:56:10;;;;;;;28.85;25.98;;;0.80;47.70;;;;;;20452;6862;279739;-89
2022/01/12 06:58:35;;;;;;;28.27;25.20;;;0.90;46.90;;;;;;20455;6862;338193;-92
2022/01/12 07:01:01;;;;;;;21.20;19.20;;;1.00;47.40;;;;;;20451;6862;314010;-89
2022/01/12 07:03:26;;;;;;;15.63;14.02;;;1.10;46.90;;;;;;20667;6862;118200;-88
2022/01/12 07:05:52;;;;;;;19.13;17.00;;;0.80;47.10;;;;;;20649;6862;128095;-90
2022/01/12 07:08:17;;;;;;;33.85;30.35;;;0.50;47.90;;;;;;20448;6862;309586;-88
2022/01/12 07:10:43;;;;;;;23.85;21.55;;;0.40;49.00;;;;;;20456;6860;313654;-90
2022/01/12 07:13:13;;;;;;;20.73;18.90;;;0.80;48.30;;;;;;20459;6861;312488;-88
2022/01/12 07:15:38;;;;;;;17.13;15.57;;;0.80;48.30;;;;;;20663;6861;117780;-88
2022/01/12 07:18:04;;;;;;;27.67;24.95;;;0.70;48.30;;;;;;20450;6861;292825;-89
2022/01/12 07:20:29;;;;;;;23.53;20.97;;;0.70;48.80;;;;;;20680;6861;118088;-91
2022/01/12 07:22:55;;;;;;;24.87;20.23;;;0.50;48.50;;;;;;20681;6861;121808;-91
2022/01/12 07:25:20;;;;;;;20.77;18.03;;;0.20;48.80;;;;;;20667;6861;122200;-87
2022/01/12 07:27:46;;;;;;;23.92;21.62;;;0.00;49.20;;;;;;20461;6861;314418;-86
2022/01/12 07:30:12;;;;;;;20.90;18.67;;;0.00;49.30;;;;;;20666;6861;117710;-86
2022/01/12 07:32:38;;;;;;;20.15;18.17;;;0.20;49.60;;;;;;20459;6861;279642;-87
2022/01/12 07:35:04;;;;;;;19.87;18.00;;;0.40;49.20;;;;;;20448;6861;308800;-87
2022/01/12 07:37:30;;;;;;;15.00;13.53;;;0.40;49.10;;;;;;20665;6861;117546;-87
2022/01/12 07:39:55;;;;;;;12.90;11.65;;;0.40;49.00;;;;;;20661;6861;120744;-86
2022/01/12 07:42:21;;;;;;;18.17;16.47;;;0.20;49.40;;;;;;20453;6861;284549;-88
2022/01/12 07:44:47;;;;;;;17.73;16.23;;;0.60;50.90;;;;;;20552;6861;278255;-91
2022/01/12 07:47:13;;;;;;;19.17;17.23;;;0.60;50.20;;;;;;20677;6861;117780;-88
2022/01/12 07:49:39;;;;;;;15.83;14.17;;;0.40;50.20;;;;;;20676;6862;117586;-87
2022/01/12 07:52:05;;;;;;;17.87;15.63;;;0.40;50.20;;;;;;20655;6862;117758;-87
2022/01/12 07:54:30;;;;;;;20.20;15.70;;;0.30;50.60;;;;;;20680;6862;117491;-87
2022/01/12 07:56:56;;;;;;;24.10;18.17;;;0.10;51.50;;;;;;20674;6862;123917;-87
2022/01/12 07:59:22;;;;;;;25.23;22.73;;;0.10;51.30;;;;;;20458;6862;309348;-87
2022/01/12 08:01:47;;;;;;;17.37;15.57;;;0.30;51.30;;;;;;20649;6862;120229;-87
2022/01/12 08:04:13;;;;;;;20.37;18.40;;;0.40;51.00;;;;;;20451;6862;309058;-87
2022/01/12 08:06:38;;;;;;;19.35;17.62;;;0.70;51.00;;;;;;20450;6862;309276;-90
2022/01/12 08:09:08;;;;;;;20.30;18.08;;;1.10;50.50;;;;;;20668;6862;117547;-89
2022/01/12 08:11:34;;;;;;;14.27;12.97;;;1.20;50.20;;;;;;20656;6862;116621;-87
2022/01/12 08:13:59;;;;;;;13.70;12.40;;;1.10;50.50;;;;;;20655;6862;118007;-89
2022/01/12 08:16:25;;;;;;;14.93;13.33;;;1.10;50.90;;;;;;20675;6862;119990;-90
2022/01/12 08:18:51;;;;;;;19.45;17.65;;;1.10;51.30;;;;;;20463;6862;283372;-89
2022/01/12 08:21:17;;;;;;;15.93;14.43;;;1.50;50.70;;;;;;20670;6862;124819;-88
2022/01/12 08:23:42;;;;;;;21.27;14.50;;;1.50;50.70;;;;;;20673;6860;117401;-89
2022/01/12 08:26:08;;;;;;;17.65;15.95;;;1.60;50.70;;;;;;20437;6861;309550;-88
2022/01/12 08:28:34;;;;;;;14.43;12.98;;;1.80;50.30;;;;;;20674;6861;117492;-87
2022/01/12 08:30:59;;;;;;;16.12;14.73;;;2.00;50.00;;;;;;20454;6861;279049;-88
2022/01/12 08:33:26;;;;;;;15.63;14.33;;;2.20;49.40;;;;;;20458;6861;284847;-88
2022/01/12 08:35:52;;;;;;;15.60;14.37;;;2.60;48.30;;;;;;20433;6861;280910;-88
2022/01/12 08:38:17;;;;;;;15.38;14.18;;;3.00;47.40;;;;;;20422;6861;308820;-89
2022/01/12 08:40:43;;;;;;;16.90;15.32;;;3.30;46.50;;;;;;20491;6861;307757;-88
2022/01/12 08:43:09;;;;;;;14.33;13.03;;;3.60;46.20;;;;;;20452;6861;310215;-88
2022/01/12 08:45:34;;;;;;;14.87;13.38;;;3.90;48.00;;;;;;20670;6861;117521;-90
2022/01/12 08:48:00;;;;;;;14.27;12.98;;;4.00;48.60;;;;;;20431;6861;278756;-87
2022/01/12 08:50:25;;;;;;;13.10;11.80;;;4.20;48.40;;;;;;20689;6861;68881;-88
2022/01/12 08:52:51;;;;;;;13.80;12.70;;;4.40;48.50;;;;;;20415;6861;313159;-88
2022/01/12 08:55:17;;;;;;;11.97;10.93;;;4.80;47.70;;;;;;20674;6861;118269;-87
2022/01/12 08:57:43;;;;;;;11.30;10.37;;;4.80;47.60;;;;;;20643;6861;119067;-86
2022/01/12 09:00:08;;;;;;;13.32;12.32;;;4.80;47.90;;;;;;20426;6862;284464;-87
2022/01/12 09:02:34;;;;;;;11.03;10.13;;;5.00;46.80;;;;;;20660;6862;117613;-87
2022/01/12 09:04:59;;;;;;;10.40;9.40;;;5.10;46.70;;;;;;20653;6862;123689;-87
2022/01/12 09:07:25;;;;;;;11.40;10.60;;;5.10;47.20;;;;;;20455;6862;308822;-87
2022/01/12 09:09:52;;;;;;;10.48;9.48;;;5.30;46.40;;;;;;20642;6862;147791;-87
2022/01/12 09:12:16;;;;;;;11.33;10.53;;;5.40;46.40;;;;;;20457;6862;312379;-88
2022/01/12 09:14:43;;;;;;;10.20;9.53;;;6.00;44.30;;;;;;20474;6862;307938;-88
2022/01/12 09:17:11;;;;;;;10.70;9.80;;;5.90;44.20;;;;;;20460;6862;325262;-88
2022/01/12 09:19:37;;;;;;;10.95;10.13;;;6.50;42.80;;;;;;20454;6862;308747;-90
2022/01/12 09:22:03;;;;;;;9.83;9.13;;;6.50;42.80;;;;;;20636;6862;119100;-88
2022/01/12 09:24:29;;;;;;;11.33;10.47;;;6.40;43.30;;;;;;20462;6862;308282;-87
2022/01/12 09:26:54;;;;;;;10.47;9.57;;;6.50;42.60;;;;;;20679;6862;118205;-88
2022/01/12 09:29:20;;;;;;;11.53;10.67;;;6.50;41.60;;;;;;20467;6862;338342;-86
2022/01/12 09:31:46;;;;;;;11.23;10.43;;;6.50;41.60;;;;;;20466;6862;336758;-86
2022/01/12 09:34:12;;;;;;;11.10;10.30;;;6.90;40.80;;;;;;20460;6859;307582;-86
2022/01/12 09:36:38;;;;;;;9.37;8.67;;;6.90;40.80;;;;;;20709;6861;116461;-86
2022/01/12 09:39:06;;;;;;;8.83;8.23;;;6.40;42.10;;;;;;20720;6861;116277;-85
2022/01/12 09:41:30;;;;;;;11.30;10.50;;;6.30;42.00;;;;;;20492;6861;301829;-86
2022/01/12 09:43:58;;;;;;;12.65;11.65;;;6.40;41.30;;;;;;20445;6861;303322;-85
2022/01/12 09:46:23;;;;;;;11.70;10.80;;;6.50;40.80;;;;;;20462;6861;309312;-86
2022/01/12 09:48:49;;;;;;;11.57;10.68;;;6.70;40.20;;;;;;20666;6861;118258;-85
2022/01/12 09:51:14;;;;;;;9.90;9.10;;;6.50;40.90;;;;;;20672;6861;117775;-88
2022/01/12 09:53:41;;;;;;;9.32;8.63;;;6.20;41.80;;;;;;20671;6861;118380;-85
2022/01/12 09:56:20;;;;;;;10.93;10.23;;;6.00;42.60;;;;;;20426;6861;343293;-86
2022/01/12 09:58:44;;;;;;;11.02;10.23;;;6.10;42.80;;;;;;20200;6861;279294;-85
2022/01/12 10:01:10;;;;;;;10.52;9.65;;;6.40;42.00;;;;;;20666;6861;117735;-85
2022/01/12 10:03:35;;;;;;;11.43;10.52;;;6.40;42.40;;;;;;20656;6861;117458;-85
2022/01/12 10:06:11;;;;;;;10.13;9.23;;;6.30;42.90;;;;;;20628;6861;125690;-86
2022/01/12 10:08:36;;;;;;;10.53;9.63;;;6.10;43.40;;;;;;20647;6861;120175;-86
2022/01/12 10:11:05;;;;;;;10.25;9.40;;;6.00;43.90;;;;;;20677;6861;117623;-85
2022/01/12 10:13:31;;;;;;;12.85;11.85;;;5.90;44.30;;;;;;20444;6862;307130;-86
2022/01/12 10:15:56;;;;;;;12.63;11.63;;;6.10;43.40;;;;;;20444;6862;297976;-85
2022/01/12 10:18:25;;;;;;;11.57;10.68;;;6.50;42.60;;;;;;20720;6862;120742;-86
2022/01/12 10:20:52;;;;;;;11.25;10.35;;;6.60;42.80;;;;;;20473;6862;346951;-85
2022/01/12 10:23:19;;;;;;;10.33;9.53;;;6.90;42.50;;;;;;20686;6862;120324;-84
2022/01/12 10:25:46;;;;;;;10.17;9.47;;;6.90;42.40;;;;;;20455;6862;309193;-84
2022/01/12 10:28:09;;;;;;;11.40;10.60;;;7.00;40.60;;;;;;20436;6862;318005;-84
2022/01/12 10:30:37;;;;;;;11.73;10.83;;;7.20;37.40;;;;;;20651;6862;117846;-86
2022/01/12 10:33:05;;;;;;;11.47;10.67;;;7.10;38.30;;;;;;20455;6862;309287;-87
2022/01/12 10:35:31;;;;;;;10.40;9.70;;;7.20;39.40;;;;;;20434;6862;279667;-85
2022/01/12 10:38:03;;;;;;;10.15;9.45;;;7.40;39.20;;;;;;20642;6862;117737;-85
2022/01/12 10:40:29;;;;;;;10.37;9.57;;;7.30;39.80;;;;;;20646;6862;117650;-85
2022/01/12 10:42:54;;;;;;;9.50;8.70;;;7.00;40.20;;;;;;20671;6862;123827;-85
2022/01/12 10:45:20;;;;;;;9.82;8.93;;;6.80;40.70;;;;;;20681;6860;117470;-85
2022/01/12 10:47:47;;;;;;;11.40;10.60;;;6.60;41.10;;;;;;20460;6861;308744;-86
2022/01/12 10:50:12;;;;;;;10.03;9.30;;;6.70;40.60;;;;;;20668;6861;117692;-86
2022/01/12 10:52:39;;;;;;;11.80;10.90;;;6.80;40.90;;;;;;20466;6861;310060;-86
2022/01/12 10:55:07;;;;;;;11.32;10.50;;;6.90;40.70;;;;;;20414;6861;308763;-86
2022/01/12 10:57:40;;;;;;;11.70;10.50;;;7.20;40.10;;;;;;20662;6861;117538;-85
2022/01/12 11:00:10;;;;;;;10.77;9.87;;;7.30;40.40;;;;;;20653;6861;124215;-85
2022/01/12 11:02:35;;;;;;;10.97;10.17;;;7.10;40.70;;;;;;20463;6861;308798;-85
2022/01/12 11:05:02;;;;;;;10.35;9.55;;;7.20;40.80;;;;;;20662;6861;117556;-86
2022/01/12 11:07:27;;;;;;;10.43;9.53;;;7.20;40.80;;;;;;20666;6861;121523;-86
2022/01/12 11:09:52;;;;;;;10.70;9.73;;;7.00;40.90;;;;;;20652;6861;117842;-86
2022/01/12 11:12:20;;;;;;;11.17;10.30;;;6.90;41.30;;;;;;20457;6861;309173;-88
2022/01/12 11:14:46;;;;;;;11.30;10.50;;;6.90;41.30;;;;;;20462;6861;308604;-88
2022/01/12 11:17:11;;;;;;;11.00;10.20;;;7.20;40.90;;;;;;20454;6861;308272;-88
2022/01/12 11:19:38;;;;;;;10.00;9.30;;;7.70;38.30;;;;;;20453;6861;313721;-86
2022/01/12 11:22:27;;;;;;;10.77;9.93;;;7.90;38.20;;;;;;20422;6861;309173;-87
2022/01/12 11:24:53;;;;;;;9.40;8.70;;;7.90;38.20;;;;;;20678;6862;117344;-87
2022/01/12 11:27:22;;;;;;;10.75;10.05;;;7.60;38.30;;;;;;20464;6862;309182;-85
2022/01/12 11:29:47;;;;;;;9.63;9.03;;;7.50;38.30;;;;;;20660;6862;119508;-87
2022/01/12 11:32:13;;;;;;;9.65;9.05;;;7.20;38.50;;;;;;20416;6876;309716;-86
2022/01/12 11:34:40;;;;;;;9.67;8.87;;;7.10;38.40;;;;;;20610;6872;117205;-86
2022/01/12 11:37:12;;;;;;;9.45;8.80;;;7.00;39.00;;;;;;20398;6877;284126;-85
2022/01/12 11:39:37;;;;;;;10.88;10.07;;;7.00;38.30;;;;;;20395;6876;339098;-86
2022/01/12 11:42:03;;;;;;;10.93;10.13;;;7.20;38.00;;;;;;20378;6876;280131;-86
2022/01/12 11:44:30;;;;;;;11.50;10.60;;;7.30;37.60;;;;;;20405;6876;315066;-85
2022/01/12 11:46:57;;;;;;;11.30;10.50;;;7.40;37.50;;;;;;20374;6876;339848;-87
2022/01/12 11:49:23;;;;;;;12.23;11.32;;;7.50;37.40;;;;;;20414;6876;308820;-85
2022/01/12 11:51:50;;;;;;;11.20;10.40;;;7.60;36.60;;;;;;20309;6876;290264;-90
2022/01/12 11:54:22;;;;;;;12.43;11.43;;;7.60;36.90;;;;;;20389;6867;337834;-85
2022/01/12 11:56:50;;;;;;;11.95;11.12;;;7.60;37.40;;;;;;20430;6857;345207;-85
2022/01/12 11:59:16;;;;;;;11.10;10.20;;;7.50;35.70;;;;;;20690;6858;117665;-84
2022/01/12 12:02:04;;;;;;;11.00;10.10;;;7.20;36.50;;;;;;20717;6859;117699;-93
2022/01/12 12:04:30;;;;;;;10.80;9.90;;;6.70;37.20;;;;;;20725;6859;120800;-89
2022/01/12 12:07:12;;;;;;;10.73;9.82;;;6.30;38.30;;;;;;20504;6859;310131;-87
2022/01/12 12:09:44;;;;;;;11.07;10.17;;;6.30;38.90;;;;;;20723;6859;116445;-87
2022/01/12 12:12:16;;;;;;;9.27;8.57;;;6.20;39.30;;;;;;20721;6859;116655;-88
2022/01/12 12:14:48;;;;;;;9.67;8.77;;;6.00;39.80;;;;;;20673;6859;117205;-86
2022/01/12 12:17:16;;;;;;;11.47;10.67;;;5.90;40.50;;;;;;20448;6859;279163;-89
2022/01/12 12:19:42;;;;;;;10.90;10.10;;;6.00;39.50;;;;;;20469;6859;290242;-87
2022/01/12 12:22:08;;;;;;;10.75;10.00;;;6.30;38.10;;;;;;20453;6859;310560;-87
2022/01/12 12:24:33;;;;;;;9.73;8.90;;;6.50;38.70;;;;;;20673;6859;116857;-88
2022/01/12 12:26:59;;;;;;;9.52;8.93;;;6.40;39.20;;;;;;20415;6876;339258;-87
2022/01/12 12:29:26;;;;;;;9.30;8.60;;;6.40;38.50;;;;;;20614;6876;117260;-89
2022/01/12 12:31:50;;;;;;;9.13;8.53;;;6.30;39.00;;;;;;20389;6876;338904;-87
2022/01/12 12:34:15;;;;;;;10.50;9.80;;;6.30;40.00;;;;;;20413;6879;309229;-87
2022/01/12 12:36:41;;;;;;;9.02;8.32;;;6.50;38.90;;;;;;20676;6859;117420;-87
2022/01/12 12:39:10;;;;;;;8.43;7.73;;;6.50;38.90;;;;;;20683;6859;117288;-89
2022/01/12 12:41:35;;;;;;;8.03;7.40;;;6.30;39.30;;;;;;20672;6859;116266;-91
2022/01/12 12:44:01;;;;;;;9.52;8.82;;;6.00;39.70;;;;;;20440;6859;312616;-88
2022/01/12 12:46:28;;;;;;;8.63;7.82;;;6.10;39.30;;;;;;20687;6859;117359;-88
2022/01/12 12:48:54;;;;;;;8.40;7.70;;;6.10;39.30;;;;;;20680;6859;117189;-88
2022/01/12 12:51:19;;;;;;;9.02;8.50;;;6.00;40.00;;;;;;20471;6859;309127;-87
2022/01/12 12:53:45;;;;;;;8.85;8.15;;;6.20;40.20;;;;;;20683;6859;119732;-87
2022/01/12 12:56:16;;;;;;;10.95;10.05;;;6.20;40.20;;;;;;20638;6859;119604;-89
2022/01/12 12:58:39;;;;;;;11.23;10.43;;;6.10;40.20;;;;;;20457;6859;308693;-89
2022/01/12 13:01:08;;;;;;;9.43;8.73;;;6.20;37.90;;;;;;20674;6859;117943;-88
2022/01/12 13:03:35;;;;;;;11.27;10.48;;;6.20;36.60;;;;;;20470;6859;280123;-87
2022/01/12 13:06:02;;;;;;;9.87;9.17;;;6.30;37.20;;;;;;20437;6859;318563;-89
2022/01/12 13:08:29;;;;;;;9.60;8.80;;;6.30;38.20;;;;;;20634;6874;122302;-87
2022/01/12 13:10:55;;;;;;;9.47;8.77;;;6.30;38.20;;;;;;20642;6870;117731;-88
2022/01/12 13:13:20;;;;;;;11.00;10.20;;;6.10;38.70;;;;;;20421;6876;280055;-88
2022/01/12 13:15:47;;;;;;;9.40;8.80;;;6.30;37.90;;;;;;20422;6876;283897;-86
2022/01/12 13:18:13;;;;;;;8.83;8.23;;;6.30;37.90;;;;;;20611;6876;116926;-87
2022/01/12 13:23:23;;;;;;;8.17;7.60;;;6.10;39.10;;;;;;20641;6871;117234;-89
2022/01/12 13:25:49;;;;;;;8.00;7.40;;;5.90;39.50;;;;;;20590;6876;117859;-87
2022/01/12 13:28:14;;;;;;;10.45;9.55;;;5.80;40.30;;;;;;20673;6861;123523;-87
2022/01/12 13:30:46;;;;;;;9.60;8.70;;;5.70;40.40;;;;;;20696;6871;116534;-88
2022/01/12 13:33:12;;;;;;;11.60;10.70;;;5.60;40.30;;;;;;20402;6876;338917;-86
2022/01/12 13:35:37;;;;;;;13.50;11.67;;;5.70;40.40;;;;;;20649;6871;117573;-85
2022/01/12 13:38:04;;;;;;;11.77;10.80;;;5.70;40.50;;;;;;20408;6876;309841;-86
2022/01/12 13:40:33;;;;;;;15.07;13.60;;;5.90;39.70;;;;;;20420;6876;293149;-85
2022/01/12 13:43:00;;;;;;;9.73;8.93;;;6.10;39.20;;;;;;20471;6876;117531;-87
2022/01/12 13:45:36;;;;;;;9.68;8.85;;;5.80;40.00;;;;;;20601;6876;117409;-86
2022/01/12 13:47:57;;;;;;;10.60;9.90;;;5.80;40.00;;;;;;20360;6876;313684;-88
2022/01/12 13:50:20;;;;;;;16.67;14.93;;;5.90;40.10;;;;;;20410;6876;313786;-87
2022/01/12 13:52:54;;;;;;;10.80;10.00;;;6.10;39.40;;;;;;20393;6876;309781;-87
2022/01/12 13:55:20;;;;;;;10.07;9.27;;;6.40;38.50;;;;;;20653;6872;117548;-87